New Matamoras, Ohio
Current Conditions -  °F | °C
As of 6:53 PM on Friday 24 Oct 2014 (Local Time) from KPKB Reporting Station
Clear Clear  
Wind Chill: 56°   Ceiling: Unl
Heat Index: 56°   Visibility: 10mi
Dew Point: 40°   Wind: 0mph
Humidity: 55%   Direction: NA
Pressure: 30.05"   Gusts: NA
Location:  39.52°N, 81.07°W
Report Text: KPKB 242253Z 00000KT 10SM CLR 13/04 A3005 RMK AO2 SLP180 T01330044
Loading
Personal Weather Stations






























Interactive Weather Map New forecast layout! Learn more

10-Day Weather Forecast

Advertisements
Track Severe Weather on mobile